Time,TemperatureF,DewpointF,PressureIn,WindDirection,WindDirectionDegrees,WindSpeedMPH,WindSpeedGustMPH,Humidity,HourlyPrecipIn,Conditions,Clouds,dailyrainin,SoftwareType,DateUTC
2013-05-10 00:00:00,63.4,61.9,29.92,ESE,111,1.0,2.0,95,0.00,,,0.03,Wunderground v.1.15,2013-05-10 05:00:00,
2013-05-10 00:05:00,63.3,61.8,29.91,East,79,1.0,2.0,95,0.00,,,0.00,Wunderground v.1.15,2013-05-10 05:05:00,
2013-05-10 00:15:00,63.1,61.6,29.90,SE,135,1.0,2.0,95,0.00,,,0.00,Wunderground v.1.15,2013-05-10 05:15:00,
2013-05-10 00:20:00,62.9,61.4,29.90,ESE,103,1.0,1.0,95,0.00,,,0.00,Wunderground v.1.15,2013-05-10 05:20:00,
2013-05-10 00:29:00,62.5,61.0,29.91,East,94,1.0,1.0,95,0.00,,,0.00,Wunderground v.1.15,2013-05-10 05:29:00,
2013-05-10 00:40:00,62.2,60.8,29.91,ESE,120,1.0,1.0,95,0.00,,,0.00,Wunderground v.1.15,2013-05-10 05:40:00,
2013-05-10 00:49:00,61.9,60.7,29.90,SE,127,0.0,0.0,96,0.00,,,0.00,Wunderground v.1.15,2013-05-10 05:49:00,
2013-05-10 00:55:00,61.8,60.6,29.90,SE,127,0.0,0.0,96,0.00,,,0.00,Wunderground v.1.15,2013-05-10 05:55:00,
2013-05-10 01:04:00,61.6,60.4,29.91,NE,53,0.0,0.0,96,0.00,,,0.00,Wunderground v.1.15,2013-05-10 06:04:00,
2013-05-10 01:15:00,61.5,60.3,29.92,North,352,0.0,1.0,96,0.00,,,0.00,Wunderground v.1.15,2013-05-10 06:15:00,
2013-05-10 01:24:00,61.5,60.6,29.91,SSE,153,0.0,0.0,97,0.00,,,0.00,Wunderground v.1.15,2013-05-10 06:24:00,
2013-05-10 01:35:00,61.6,60.7,29.91,West,280,0.0,1.0,97,0.00,,,0.00,Wunderground v.1.15,2013-05-10 06:35:00,
2013-05-10 01:44:00,61.4,60.5,29.89,WSW,247,0.0,0.0,97,0.00,,,0.00,Wunderground v.1.15,2013-05-10 06:44:00,
2013-05-10 01:55:00,61.4,60.5,29.89,WSW,248,0.0,0.0,97,0.00,,,0.00,Wunderground v.1.15,2013-05-10 06:55:00,
2013-05-10 02:04:00,61.2,60.3,29.89,WSW,249,0.0,2.0,97,0.00,,,0.00,Wunderground v.1.15,2013-05-10 07:04:00,
2013-05-10 02:15:00,61.1,60.2,29.89,WSW,248,0.0,1.0,97,0.00,,,0.00,Wunderground v.1.15,2013-05-10 07:15:00,
2013-05-10 02:25:00,61.2,60.3,29.89,WSW,248,0.0,0.0,97,0.00,,,0.00,Wunderground v.1.15,2013-05-10 07:25:00,
2013-05-10 02:34:00,61.2,60.3,29.88,WSW,249,0.0,0.0,97,0.00,,,0.00,Wunderground v.1.15,2013-05-10 07:34:00,
2013-05-10 02:40:00,61.1,60.2,29.88,WSW,249,0.0,0.0,97,0.00,,,0.00,Wunderground v.1.15,2013-05-10 07:40:00,
2013-05-10 02:49:00,61.2,60.3,29.87,WSW,249,0.0,0.0,97,0.00,,,0.00,Wunderground v.1.15,2013-05-10 07:49:00,
2013-05-10 03:00:00,61.3,60.7,29.87,WSW,249,0.0,0.0,98,0.00,,,0.00,Wunderground v.1.15,2013-05-10 08:00:00,
2013-05-10 03:09:00,61.4,60.8,29.86,WSW,248,0.0,0.0,98,0.00,,,0.00,Wunderground v.1.15,2013-05-10 08:09:00,
2013-05-10 03:20:00,61.7,61.1,29.87,WSW,249,0.0,0.0,98,0.00,,,0.01,Wunderground v.1.15,2013-05-10 08:20:00,
2013-05-10 03:29:00,62.3,61.7,29.86,West,263,0.0,0.0,98,0.00,,,0.01,Wunderground v.1.15,2013-05-10 08:29:00,
2013-05-10 03:35:00,62.5,61.9,29.86,West,263,0.0,0.0,98,0.00,,,0.01,Wunderground v.1.15,2013-05-10 08:35:00,
2013-05-10 03:45:00,62.9,62.3,29.86,West,263,0.0,0.0,98,0.00,,,0.01,Wunderground v.1.15,2013-05-10 08:45:00,
2013-05-10 03:54:00,63.1,62.5,29.86,West,263,0.0,0.0,98,0.00,,,0.01,Wunderground v.1.15,2013-05-10 08:54:00,
2013-05-10 04:00:00,63.3,62.7,29.86,West,263,0.0,0.0,98,0.00,,,0.01,Wunderground v.1.15,2013-05-10 09:00:00,
2013-05-10 04:09:00,63.3,62.7,29.86,West,263,0.0,0.0,98,0.00,,,0.01,Wunderground v.1.15,2013-05-10 09:09:00,
2013-05-10 04:20:00,63.5,62.9,29.86,West,263,0.0,0.0,98,0.00,,,0.01,Wunderground v.1.15,2013-05-10 09:20:00,
2013-05-10 04:29:00,63.7,63.1,29.85,West,263,0.0,0.0,98,0.00,,,0.01,Wunderground v.1.15,2013-05-10 09:29:00,
2013-05-10 04:40:00,63.9,63.3,29.85,West,262,0.0,0.0,98,0.00,,,0.01,Wunderground v.1.15,2013-05-10 09:40:00,
2013-05-10 04:49:00,64.2,63.6,29.84,West,263,0.0,0.0,98,0.00,,,0.01,Wunderground v.1.15,2013-05-10 09:49:00,
2013-05-10 05:00:00,64.4,63.8,29.83,West,263,0.0,0.0,98,0.00,,,0.01,Wunderground v.1.15,2013-05-10 10:00:00,
2013-05-10 05:09:00,64.7,64.1,29.84,WNW,293,0.0,0.0,98,0.00,,,0.01,Wunderground v.1.15,2013-05-10 10:09:00,
2013-05-10 05:20:00,64.9,64.3,29.84,NNW,334,0.0,0.0,98,0.00,,,0.01,Wunderground v.1.15,2013-05-10 10:20:00,
2013-05-10 05:29:00,65.1,64.5,29.84,NNW,333,0.0,0.0,98,0.00,,,0.01,Wunderground v.1.15,2013-05-10 10:29:00,
2013-05-10 05:40:00,65.4,64.8,29.86,NW,323,1.0,3.0,98,0.00,,,0.01,Wunderground v.1.15,2013-05-10 10:40:00,
2013-05-10 05:49:00,65.4,64.8,29.88,NNE,18,5.0,6.0,98,0.00,,,0.01,Wunderground v.1.15,2013-05-10 10:49:00,
2013-05-10 05:59:00,66.0,65.7,29.90,WNW,291,5.0,5.0,99,0.00,,,0.01,Wunderground v.1.15,2013-05-10 10:59:00,
2013-05-10 06:05:00,66.1,65.5,29.89,ENE,61,4.0,5.0,98,0.00,,,0.01,Wunderground v.1.15,2013-05-10 11:05:00,
2013-05-10 06:14:00,66.2,65.6,29.88,NNE,31,3.0,6.0,98,0.00,,,0.01,Wunderground v.1.15,2013-05-10 11:14:00,
2013-05-10 06:20:00,66.1,65.5,29.88,North,6,2.0,2.0,98,0.00,,,0.02,Wunderground v.1.15,2013-05-10 11:20:00,
2013-05-10 06:29:00,66.0,65.1,29.88,NE,48,2.0,5.0,97,0.00,,,0.02,Wunderground v.1.15,2013-05-10 11:29:00,
2013-05-10 06:40:00,66.0,65.1,29.90,North,360,2.0,2.0,97,0.00,,,0.02,Wunderground v.1.15,2013-05-10 11:40:00,
2013-05-10 06:50:00,65.7,64.8,29.90,NW,319,1.0,2.0,97,0.16,,,0.06,Wunderground v.1.15,2013-05-10 11:50:00,
2013-05-10 07:00:00,65.5,64.3,29.92,NW,318,2.0,3.0,96,0.06,,,0.07,Wunderground v.1.15,2013-05-10 12:00:00,
2013-05-10 07:09:00,65.4,63.9,29.97,SW,222,3.0,4.0,95,0.00,,,0.07,Wunderground v.1.15,2013-05-10 12:09:00,
2013-05-10 07:19:00,63.8,61.1,29.94,NNW,344,6.0,6.0,91,1.21,,,0.17,Wunderground v.1.15,2013-05-10 12:19:00,
2013-05-10 07:25:00,62.2,60.8,29.95,WNW,302,9.0,25.0,95,0.21,,,0.22,Wunderground v.1.15,2013-05-10 12:25:00,
2013-05-10 07:34:00,61.6,60.4,29.95,NE,41,9.0,14.0,96,0.05,,,0.22,Wunderground v.1.15,2013-05-10 12:34:00,
2013-05-10 07:45:00,61.8,60.9,29.93,North,352,6.0,7.0,97,0.00,,,0.22,Wunderground v.1.15,2013-05-10 12:45:00,
2013-05-10 07:54:00,62.0,61.1,29.94,NE,40,5.0,7.0,97,0.00,,,0.22,Wunderground v.1.15,2013-05-10 12:54:00,
2013-05-10 08:05:00,62.5,61.6,29.94,NNE,22,5.0,8.0,97,0.00,,,0.22,Wunderground v.1.15,2013-05-10 13:05:00,
2013-05-10 08:14:00,63.1,61.9,29.98,NW,308,6.0,6.0,96,0.00,,,0.22,Wunderground v.1.15,2013-05-10 13:14:00,
2013-05-10 08:25:00,63.2,62.0,29.97,NE,43,5.0,6.0,96,0.00,,,0.22,Wunderground v.1.15,2013-05-10 13:25:00,
2013-05-10 08:34:00,63.2,62.0,29.93,NE,47,3.0,4.0,96,0.00,,,0.23,Wunderground v.1.15,2013-05-10 13:34:00,
2013-05-10 08:44:00,63.2,61.7,29.89,ENE,61,4.0,4.0,95,0.07,,,0.24,Wunderground v.1.15,2013-05-10 13:44:00,
2013-05-10 08:50:00,63.2,61.7,29.89,NNW,341,4.0,4.0,95,0.06,,,0.24,Wunderground v.1.15,2013-05-10 13:50:00,
2013-05-10 08:59:00,63.3,61.8,29.90,ENE,70,3.0,3.0,95,0.00,,,0.24,Wunderground v.1.15,2013-05-10 13:59:00,
2013-05-10 09:10:00,64.1,62.9,29.90,NNE,18,1.0,3.0,96,0.00,,,0.24,Wunderground v.1.15,2013-05-10 14:10:00,
2013-05-10 09:19:00,65.5,64.3,29.91,NE,50,2.0,2.0,96,0.00,,,0.24,Wunderground v.1.15,2013-05-10 14:19:00,
2013-05-10 09:30:00,66.9,65.4,29.91,ENE,76,1.0,1.0,95,0.00,,,0.24,Wunderground v.1.15,2013-05-10 14:30:00,
2013-05-10 09:39:00,67.8,65.4,29.91,North,11,1.0,3.0,92,0.00,,,0.24,Wunderground v.1.15,2013-05-10 14:39:00,
2013-05-10 09:49:00,68.8,65.7,29.92,NE,44,1.0,1.0,90,0.00,,,0.24,Wunderground v.1.15,2013-05-10 14:49:00,
2013-05-10 09:55:00,69.3,65.9,29.91,SE,124,1.0,1.0,89,0.00,,,0.24,Wunderground v.1.15,2013-05-10 14:55:00,
2013-05-10 10:04:00,70.1,66.0,29.91,NNW,347,1.0,1.0,87,0.00,,,0.24,Wunderground v.1.15,2013-05-10 15:04:00,
2013-05-10 10:10:00,70.3,66.6,29.91,East,87,0.0,1.0,88,0.00,,,0.24,Wunderground v.1.15,2013-05-10 15:10:00,
2013-05-10 10:19:00,70.2,66.5,29.91,SE,139,0.0,0.0,88,0.00,,,0.24,Wunderground v.1.15,2013-05-10 15:19:00,
2013-05-10 10:29:00,70.8,66.1,29.93,NNW,342,0.0,2.0,85,0.00,,,0.24,Wunderground v.1.15,2013-05-10 15:29:00,
2013-05-10 10:35:00,71.6,66.2,29.93,ENE,75,1.0,2.0,83,0.00,,,0.24,Wunderground v.1.15,2013-05-10 15:35:00,
2013-05-10 10:44:00,72.9,65.6,29.93,East,93,1.0,1.0,78,0.00,,,0.24,Wunderground v.1.15,2013-05-10 15:44:00,
2013-05-10 10:50:00,73.2,66.3,29.93,ESE,111,1.0,1.0,79,0.00,,,0.24,Wunderground v.1.15,2013-05-10 15:50:00,
2013-05-10 10:59:00,74.2,66.5,29.92,ESE,122,1.0,2.0,77,0.00,,,0.24,Wunderground v.1.15,2013-05-10 15:59:00,
2013-05-10 11:10:00,75.2,67.5,29.92,South,173,1.0,1.0,77,0.00,,,0.24,Wunderground v.1.15,2013-05-10 16:10:00,
2013-05-10 11:19:00,76.3,68.2,29.92,ESE,113,1.0,1.0,76,0.00,,,0.24,Wunderground v.1.15,2013-05-10 16:19:00,
2013-05-10 11:30:00,77.2,67.9,29.92,NW,321,2.0,5.0,73,0.00,,,0.24,Wunderground v.1.15,2013-05-10 16:30:00,
2013-05-10 11:39:00,78.0,69.0,29.92,NE,42,1.0,1.0,74,0.00,,,0.24,Wunderground v.1.15,2013-05-10 16:39:00,
2013-05-10 11:50:00,79.3,67.8,29.92,WNW,293,1.0,2.0,68,0.00,,,0.24,Wunderground v.1.15,2013-05-10 16:50:00,
2013-05-10 11:59:00,79.4,68.8,29.93,NW,321,3.0,3.0,70,0.00,,,0.24,Wunderground v.1.15,2013-05-10 16:59:00,
2013-05-10 12:10:00,79.7,68.2,29.92,North,352,2.0,3.0,68,0.00,,,0.24,Wunderground v.1.15,2013-05-10 17:10:00,
2013-05-10 12:19:00,80.6,69.1,29.92,ENE,63,2.0,3.0,68,0.00,,,0.24,Wunderground v.1.15,2013-05-10 17:19:00,
2013-05-10 12:24:00,80.8,68.8,29.92,ENE,68,2.0,3.0,67,0.00,,,0.24,Wunderground v.1.15,2013-05-10 17:24:00,
2013-05-10 12:30:00,81.0,68.6,29.92,WNW,287,1.0,1.0,66,0.00,,,0.24,Wunderground v.1.15,2013-05-10 17:30:00,
2013-05-10 12:39:00,81.6,69.6,29.92,West,276,1.0,1.0,67,0.00,,,0.24,Wunderground v.1.15,2013-05-10 17:39:00,
2013-05-10 12:49:00,81.8,69.8,29.93,NNW,345,2.0,2.0,67,0.00,,,0.24,Wunderground v.1.15,2013-05-10 17:49:00,
2013-05-10 12:55:00,82.0,68.6,29.93,NW,314,1.0,2.0,64,0.00,,,0.24,Wunderground v.1.15,2013-05-10 17:55:00,
2013-05-10 13:04:00,82.5,67.7,29.93,NNW,331,1.0,1.0,61,0.00,,,0.24,Wunderground v.1.15,2013-05-10 18:04:00,
2013-05-10 13:15:00,83.0,68.6,29.93,NE,39,1.0,2.0,62,0.00,,,0.24,Wunderground v.1.15,2013-05-10 18:15:00,
2013-05-10 13:24:00,82.7,67.9,29.92,NE,39,2.0,2.0,61,0.00,,,0.24,Wunderground v.1.15,2013-05-10 18:24:00,
2013-05-10 13:35:00,84.1,68.7,29.92,East,99,1.0,1.0,60,0.00,,,0.24,Wunderground v.1.15,2013-05-10 18:35:00,
2013-05-10 13:44:00,83.7,69.3,29.92,ENE,70,1.0,2.0,62,0.00,,,0.24,Wunderground v.1.15,2013-05-10 18:44:00,
2013-05-10 13:55:00,83.2,69.3,29.92,SSE,159,1.0,1.0,63,0.00,,,0.24,Wunderground v.1.15,2013-05-10 18:55:00,
2013-05-10 14:04:00,83.6,70.6,29.92,NNE,18,1.0,1.0,65,0.00,,,0.24,Wunderground v.1.15,2013-05-10 19:04:00,
2013-05-10 14:15:00,83.9,70.0,29.92,SE,137,1.0,3.0,63,0.00,,,0.24,Wunderground v.1.15,2013-05-10 19:15:00,
2013-05-10 14:24:00,83.1,69.7,29.92,SE,139,2.0,2.0,64,0.00,,,0.24,Wunderground v.1.15,2013-05-10 19:24:00,
2013-05-10 14:35:00,82.2,69.3,29.92,NW,313,2.0,2.0,65,0.00,,,0.24,Wunderground v.1.15,2013-05-10 19:35:00,
2013-05-10 14:44:00,83.5,70.0,29.91,West,264,2.0,2.0,64,0.00,,,0.24,Wunderground v.1.15,2013-05-10 19:44:00,
2013-05-10 14:55:00,84.4,70.0,29.91,SE,143,1.0,3.0,62,0.00,,,0.24,Wunderground v.1.15,2013-05-10 19:55:00,
2013-05-10 15:04:00,85.6,69.1,29.91,East,101,1.0,2.0,58,0.00,,,0.24,Wunderground v.1.15,2013-05-10 20:04:00,
2013-05-10 15:15:00,85.6,68.1,29.90,NW,314,1.0,2.0,56,0.00,,,0.24,Wunderground v.1.15,2013-05-10 20:15:00,
2013-05-10 15:24:00,86.3,68.2,29.90,NE,46,1.0,1.0,55,0.00,,,0.24,Wunderground v.1.15,2013-05-10 20:24:00,
2013-05-10 15:34:00,86.7,68.6,29.89,ESE,112,1.0,1.0,55,0.00,,,0.24,Wunderground v.1.15,2013-05-10 20:34:00,
2013-05-10 15:40:00,87.1,69.0,29.89,WNW,293,1.0,1.0,55,0.00,,,0.24,Wunderground v.1.15,2013-05-10 20:40:00,
2013-05-10 15:49:00,86.5,67.9,29.88,SE,127,1.0,1.0,54,0.00,,,0.24,Wunderground v.1.15,2013-05-10 20:49:00,
2013-05-10 16:00:00,86.1,69.6,29.88,SE,130,1.0,2.0,58,0.00,,,0.24,Wunderground v.1.15,2013-05-10 21:00:00,
2013-05-10 16:09:00,86.3,68.8,29.87,South,181,2.0,2.0,56,0.00,,,0.24,Wunderground v.1.15,2013-05-10 21:09:00,
2013-05-10 16:15:00,86.4,68.3,29.87,SE,129,1.0,2.0,55,0.00,,,0.24,Wunderground v.1.15,2013-05-10 21:15:00,
2013-05-10 16:24:00,86.1,68.6,29.87,SE,130,2.0,3.0,56,0.00,,,0.24,Wunderground v.1.15,2013-05-10 21:24:00,
2013-05-10 16:34:00,85.8,68.8,29.87,East,83,1.0,2.0,57,0.00,,,0.24,Wunderground v.1.15,2013-05-10 21:34:00,
2013-05-10 16:40:00,85.4,68.9,29.87,East,89,1.0,1.0,58,0.00,,,0.24,Wunderground v.1.15,2013-05-10 21:40:00,
2013-05-10 16:49:00,84.1,68.7,29.87,SSE,155,1.0,1.0,60,0.00,,,0.24,Wunderground v.1.15,2013-05-10 21:49:00,
2013-05-10 16:55:00,83.5,68.6,29.87,ESE,120,0.0,1.0,61,0.00,,,0.24,Wunderground v.1.15,2013-05-10 21:55:00,
2013-05-10 17:00:00,82.9,68.1,29.87,SE,142,1.0,1.0,61,0.00,,,0.24,Wunderground v.1.15,2013-05-10 22:00:00,
2013-05-10 17:04:00,82.4,68.1,29.87,SE,133,1.0,2.0,62,0.00,,,0.24,Wunderground v.1.15,2013-05-10 22:04:00,
2013-05-10 17:14:00,82.1,68.3,29.87,SSE,160,0.0,1.0,63,0.00,,,0.24,Wunderground v.1.15,2013-05-10 22:14:00,
2013-05-10 17:20:00,82.0,68.6,29.87,East,96,0.0,0.0,64,0.00,,,0.24,Wunderground v.1.15,2013-05-10 22:20:00,
2013-05-10 17:29:00,81.0,68.1,29.86,SE,139,1.0,1.0,65,0.00,,,0.24,Wunderground v.1.15,2013-05-10 22:29:00,
2013-05-10 17:40:00,81.5,70.3,29.86,SE,135,1.0,1.0,69,0.00,,,0.24,Wunderground v.1.15,2013-05-10 22:40:00,
2013-05-10 17:49:00,81.1,68.2,29.85,SE,143,1.0,1.0,65,0.00,,,0.24,Wunderground v.1.15,2013-05-10 22:49:00,
2013-05-10 18:00:00,80.2,67.8,29.86,SE,131,1.0,1.0,66,0.00,,,0.24,Wunderground v.1.15,2013-05-10 23:00:00,
2013-05-10 18:09:00,79.4,67.0,29.86,SW,228,0.0,0.0,66,0.00,,,0.24,Wunderground v.1.15,2013-05-10 23:09:00,
2013-05-10 18:20:00,78.5,67.1,29.87,ESE,108,0.0,0.0,68,0.00,,,0.24,Wunderground v.1.15,2013-05-10 23:20:00,
2013-05-10 18:29:00,77.7,65.9,29.88,ENE,71,0.0,0.0,67,0.00,,,0.24,Wunderground v.1.15,2013-05-10 23:29:00,
2013-05-10 18:35:00,77.6,66.6,29.88,ENE,71,0.0,0.0,69,0.00,,,0.24,Wunderground v.1.15,2013-05-10 23:35:00,
2013-05-10 18:44:00,76.8,66.3,29.86,SE,125,0.0,0.0,70,0.00,,,0.24,Wunderground v.1.15,2013-05-10 23:44:00,
2013-05-10 18:55:00,76.4,65.5,29.87,SE,126,0.0,1.0,69,0.00,,,0.24,Wunderground v.1.15,2013-05-10 23:55:00,
2013-05-10 19:04:00,76.1,65.2,29.88,ENE,60,0.0,0.0,69,0.00,,,0.24,Wunderground v.1.15,2013-05-11 00:04:00,
2013-05-10 19:14:00,75.8,64.9,29.89,ESE,106,0.0,1.0,69,0.00,,,0.24,Wunderground v.1.15,2013-05-11 00:14:00,
2013-05-10 19:20:00,75.6,63.9,29.89,West,278,1.0,1.0,67,0.00,,,0.24,Wunderground v.1.15,2013-05-11 00:20:00,
2013-05-10 19:29:00,75.6,64.7,29.92,NW,310,1.0,1.0,69,0.00,,,0.24,Wunderground v.1.15,2013-05-11 00:29:00,
2013-05-10 19:35:00,75.5,63.8,29.93,WNW,302,0.0,2.0,67,0.00,,,0.24,Wunderground v.1.15,2013-05-11 00:35:00,
2013-05-10 19:44:00,74.8,66.3,29.93,WNW,293,1.0,1.0,75,0.00,,,0.24,Wunderground v.1.15,2013-05-11 00:44:00,
2013-05-10 19:54:00,72.7,66.9,29.94,WNW,291,0.0,0.0,82,0.00,,,0.25,Wunderground v.1.15,2013-05-11 00:54:00,
2013-05-10 20:00:00,72.0,66.9,29.95,WNW,291,0.0,0.0,84,0.06,,,0.26,Wunderground v.1.15,2013-05-11 01:00:00,
2013-05-10 20:09:00,70.5,66.8,29.96,ENE,72,1.0,1.0,88,0.07,,,0.27,Wunderground v.1.15,2013-05-11 01:09:00,
2013-05-10 20:20:00,69.7,66.6,29.97,East,79,0.0,0.0,90,0.05,,,0.27,Wunderground v.1.15,2013-05-11 01:20:00,
2013-05-10 20:29:00,69.5,67.1,29.99,East,93,2.0,3.0,92,0.00,,,0.27,Wunderground v.1.15,2013-05-11 01:29:00,
2013-05-10 20:40:00,69.8,67.4,29.99,North,354,2.0,2.0,92,0.00,,,0.27,Wunderground v.1.15,2013-05-11 01:40:00,
2013-05-10 20:49:00,69.7,67.3,29.99,WNW,298,2.0,5.0,92,0.00,,,0.27,Wunderground v.1.15,2013-05-11 01:49:00,
2013-05-10 21:00:00,68.4,65.7,29.98,NNE,25,4.0,6.0,91,0.00,,,0.27,Wunderground v.1.15,2013-05-11 02:00:00,
2013-05-10 21:09:00,67.5,64.8,29.99,ENE,70,3.0,3.0,91,0.00,,,0.27,Wunderground v.1.15,2013-05-11 02:09:00,
2013-05-10 21:15:00,67.1,64.7,30.00,NE,53,3.0,4.0,92,0.00,,,0.27,Wunderground v.1.15,2013-05-11 02:15:00,
2013-05-10 21:24:00,66.6,63.9,29.99,ENE,72,3.0,4.0,91,0.00,,,0.27,Wunderground v.1.15,2013-05-11 02:24:00,
2013-05-10 21:34:00,66.5,63.8,30.00,North,4,3.0,3.0,91,0.00,,,0.27,Wunderground v.1.15,2013-05-11 02:34:00,
2013-05-10 21:39:00,66.4,64.0,29.99,NNE,13,2.0,2.0,92,0.00,,,0.27,Wunderground v.1.15,2013-05-11 02:39:00,
2013-05-10 21:50:00,66.3,63.9,30.00,East,91,2.0,2.0,92,0.00,,,0.27,Wunderground v.1.15,2013-05-11 02:50:00,
2013-05-10 21:59:00,66.1,63.7,30.00,North,349,1.0,1.0,92,0.00,,,0.27,Wunderground v.1.15,2013-05-11 02:59:00,
2013-05-10 22:10:00,65.9,63.5,30.01,North,359,1.0,1.0,92,0.00,,,0.27,Wunderground v.1.15,2013-05-11 03:10:00,
2013-05-10 22:19:00,65.8,63.4,30.02,NW,324,1.0,1.0,92,0.00,,,0.27,Wunderground v.1.15,2013-05-11 03:19:00,
2013-05-10 22:30:00,65.7,63.0,30.01,NE,40,1.0,1.0,91,0.00,,,0.27,Wunderground v.1.15,2013-05-11 03:30:00,
2013-05-10 22:39:00,65.6,62.9,30.00,North,351,1.0,2.0,91,0.00,,,0.27,Wunderground v.1.15,2013-05-11 03:39:00,
2013-05-10 22:50:00,65.3,62.3,30.00,NW,321,2.0,3.0,90,0.00,,,0.27,Wunderground v.1.15,2013-05-11 03:50:00,
2013-05-10 22:59:00,65.2,62.2,30.01,NNW,348,2.0,2.0,90,0.00,,,0.27,Wunderground v.1.15,2013-05-11 03:59:00,
2013-05-10 23:05:00,65.1,62.1,30.01,West,278,2.0,2.0,90,0.00,,,0.27,Wunderground v.1.15,2013-05-11 04:05:00,
2013-05-10 23:10:00,65.1,62.1,30.00,NNW,347,2.0,3.0,90,0.00,,,0.27,Wunderground v.1.15,2013-05-11 04:10:00,
2013-05-10 23:19:00,65.0,62.0,30.00,NE,37,2.0,3.0,90,0.00,,,0.27,Wunderground v.1.15,2013-05-11 04:19:00,
2013-05-10 23:25:00,64.9,61.9,30.00,NW,326,2.0,3.0,90,0.00,,,0.27,Wunderground v.1.15,2013-05-11 04:25:00,
2013-05-10 23:34:00,64.6,61.9,30.00,ENE,70,1.0,2.0,91,0.00,,,0.27,Wunderground v.1.15,2013-05-11 04:34:00,
2013-05-10 23:39:00,64.6,61.9,30.00,NE,42,1.0,1.0,91,0.00,,,0.27,Wunderground v.1.15,2013-05-11 04:39:00,
2013-05-10 23:50:00,64.4,61.7,29.99,NNE,33,2.0,2.0,91,0.00,,,0.27,Wunderground v.1.15,2013-05-11 04:50:00,
2013-05-10 23:59:00,64.2,61.8,30.00,NNW,327,2.0,2.0,92,0.00,,,0.27,Wunderground v.1.15,2013-05-11 04:59:00,